Time;durP1;ratioP1;P1;durP2;ratioP2;P2;SDS_P1;SDS_P2;PMS_P1;PMS_P2;Temp;Humidity;BMP_temperature;BMP_pressure;BME280_temperature;BME280_humidity;BME280_pressure;Samples;Min_cycle;Max_cycle;Signal;HPM_P1;HPM_P2
2021/12/19 00:13:48;;;;;;;6.80;4.40;;;;;;;5.80;100.00;103801.16;10415991;28;20504;-75
2021/12/19 00:18:50;;;;;;;5.57;2.45;;;;;;;5.80;100.00;103794.94;10432575;28;20290;-75
2021/12/19 00:23:51;;;;;;;6.85;4.32;;;;;;;5.83;100.00;103787.53;10399314;28;20110;-74
2021/12/19 00:28:51;;;;;;;7.05;4.50;;;;;;;5.85;100.00;103774.00;10418300;28;20059;-75
2021/12/19 00:33:51;;;;;;;8.35;4.82;;;;;;;5.88;100.00;103781.88;10416770;28;20043;-74
2021/12/19 00:38:52;;;;;;;5.63;4.07;;;;;;;5.88;100.00;103773.81;10415689;28;20040;-74
2021/12/19 00:44:06;;;;;;;8.15;3.92;;;;;;;5.90;100.00;103771.88;10431527;28;20033;-75
2021/12/19 00:49:07;;;;;;;9.45;5.90;;;;;;;5.89;100.00;103769.28;10430082;28;20474;-75
2021/12/19 00:54:10;;;;;;;8.13;5.28;;;;;;;5.91;100.00;103765.56;10416098;28;20036;-76
2021/12/19 00:59:10;;;;;;;7.57;6.35;;;;;;;5.90;100.00;103761.13;10416114;28;20033;-76
2021/12/19 01:04:13;;;;;;;11.38;6.55;;;;;;;5.90;100.00;103752.19;10415294;28;20037;-75
2021/12/19 01:09:14;;;;;;;13.73;6.43;;;;;;;5.93;100.00;103754.72;10420698;28;20026;-69
2021/12/19 01:14:14;;;;;;;20.73;6.82;;;;;;;5.94;100.00;103743.03;10438570;28;20044;-75
2021/12/19 01:19:15;;;;;;;12.15;6.95;;;;;;;5.98;100.00;103731.09;10420326;28;20045;-75
2021/12/19 01:24:15;;;;;;;13.70;7.40;;;;;;;6.08;100.00;103736.75;10415016;28;20595;-75
2021/12/19 01:29:16;;;;;;;9.38;6.45;;;;;;;6.13;100.00;103732.81;10414721;28;20064;-75
2021/12/19 01:34:17;;;;;;;10.52;8.30;;;;;;;6.17;100.00;103728.94;10430127;28;20029;-75
2021/12/19 01:39:17;;;;;;;18.13;8.13;;;;;;;6.24;100.00;103727.56;10414548;28;20386;-75
2021/12/19 01:44:18;;;;;;;7.63;6.18;;;;;;;6.32;100.00;103727.09;10432177;28;20061;-76
2021/12/19 01:49:19;;;;;;;15.15;7.78;;;;;;;6.36;100.00;103720.53;10414742;28;20021;-75
2021/12/19 01:54:19;;;;;;;14.32;6.80;;;;;;;6.44;100.00;103717.34;10414626;28;20056;-75
2021/12/19 01:59:20;;;;;;;9.20;5.75;;;;;;;6.45;100.00;103714.56;10414278;28;20069;-75
2021/12/19 02:04:21;;;;;;;6.38;5.35;;;;;;;6.50;100.00;103711.53;10429662;28;20037;-74
2021/12/19 02:09:22;;;;;;;4.00;3.65;;;;;;;6.52;100.00;103704.25;10428983;28;20041;-75
2021/12/19 02:14:22;;;;;;;4.38;3.08;;;;;;;6.55;100.00;103709.44;10429513;28;20037;-75
2021/12/19 02:19:24;;;;;;;3.67;3.20;;;;;;;6.60;100.00;103701.03;10430170;28;20065;-76
2021/12/19 02:24:24;;;;;;;5.15;2.47;;;;;;;6.64;100.00;103700.72;10414520;28;20079;-76
2021/12/19 02:29:25;;;;;;;3.08;2.75;;;;;;;6.68;100.00;103690.63;10413487;28;20196;-76
2021/12/19 02:34:28;;;;;;;2.28;2.08;;;;;;;6.72;100.00;103682.22;10433691;28;20111;-76
2021/12/19 02:50:18;;;;;;;4.13;3.72;;;;;;;6.74;100.00;103677.59;10384503;28;20056;-76
2021/12/19 02:55:18;;;;;;;4.45;3.67;;;;;;;6.77;100.00;103670.28;10421780;28;20028;-76
2021/12/19 03:00:22;;;;;;;7.47;3.20;;;;;;;6.81;100.00;103659.19;10419759;28;20035;-76
2021/12/19 03:05:22;;;;;;;2.72;2.53;;;;;;;6.78;100.00;103663.94;10420457;28;20022;-76
2021/12/19 03:11:20;;;;;;;4.85;2.65;;;;;;;6.77;100.00;103654.13;10420210;28;20041;-75
2021/12/19 03:21:14;;;;;;;4.28;2.67;;;;;;;6.78;100.00;103640.53;10419993;28;20038;-76
2021/12/19 03:26:14;;;;;;;;;;;;;;;6.80;100.00;103627.00;10423561;28;20057;-76
2021/12/19 03:31:15;;;;;;;4.22;3.40;;;;;;;6.83;100.00;103608.78;10426504;28;19967;-76
2021/12/19 03:36:15;;;;;;;2.20;2.05;;;;;;;6.86;100.00;103597.78;10436619;28;20044;-75
2021/12/19 03:41:20;;;;;;;4.90;3.42;;;;;;;6.86;100.00;103594.22;10416960;28;20101;-74
2021/12/19 03:46:21;;;;;;;4.40;2.38;;;;;;;6.84;100.00;103583.56;10417426;28;20025;-77
2021/12/19 03:51:21;;;;;;;3.22;2.75;;;;;;;6.83;100.00;103580.97;10417047;28;20034;-75
2021/12/19 03:56:22;;;;;;;2.78;2.58;;;;;;;6.81;100.00;103581.09;10417450;28;20069;-76
2021/12/19 04:01:22;;;;;;;3.42;2.67;;;;;;;6.83;100.00;103583.66;10418486;28;20072;-76
2021/12/19 04:06:23;;;;;;;3.20;2.72;;;;;;;6.84;100.00;103580.00;10418650;28;20072;-76
2021/12/19 04:11:25;;;;;;;8.02;5.55;;;;;;;6.85;100.00;103571.81;10418261;28;20104;-75
2021/12/19 04:16:25;;;;;;;8.38;3.60;;;;;;;6.87;100.00;103563.63;10418630;28;20045;-76
2021/12/19 04:21:26;;;;;;;6.80;3.70;;;;;;;6.87;100.00;103561.81;10418316;28;20045;-75
2021/12/19 04:26:26;;;;;;;5.60;3.88;;;;;;;6.88;100.00;103554.56;10415775;28;20049;-76
2021/12/19 04:31:26;;;;;;;3.28;2.97;;;;;;;6.88;100.00;103541.97;10415369;28;20065;-76
2021/12/19 04:36:32;;;;;;;3.67;3.25;;;;;;;6.88;100.00;103541.09;10417011;28;20072;-76
2021/12/19 04:52:39;;;;;;;1.50;1.33;;;;;;;6.96;100.00;103531.53;10416436;28;20033;-75
2021/12/19 05:03:01;;;;;;;2.72;2.08;;;;;;;7.00;100.00;103524.06;10415693;28;20469;-75
2021/12/19 05:18:42;;;;;;;5.10;3.00;;;;;;;7.04;100.00;103533.66;10416671;28;20109;-76
2021/12/19 05:28:48;;;;;;;3.10;2.42;;;;;;;7.13;100.00;103542.91;10414866;28;20063;-76
2021/12/19 05:33:48;;;;;;;5.13;2.65;;;;;;;7.09;100.00;103544.97;10415034;28;20041;-75
2021/12/19 05:49:30;;;;;;;1.73;1.63;;;;;;;7.00;100.00;103534.84;10422263;28;20042;-77
2021/12/19 05:54:30;;;;;;;2.10;1.60;;;;;;;6.99;100.00;103527.75;10431178;28;20469;-76
2021/12/19 05:59:30;;;;;;;2.05;1.83;;;;;;;6.98;100.00;103528.69;10415206;28;20035;-77
2021/12/19 06:04:31;;;;;;;1.15;1.15;;;;;;;6.99;100.00;103512.44;10414443;28;20037;-77
2021/12/19 06:09:31;;;;;;;1.75;1.50;;;;;;;7.00;100.00;103505.22;10418795;28;20075;-75
2021/12/19 06:14:33;;;;;;;2.25;1.55;;;;;;;7.04;100.00;103503.16;10422183;28;20064;-76
2021/12/19 06:19:36;;;;;;;2.20;2.05;;;;;;;7.07;100.00;103501.09;10420652;28;20125;-76
2021/12/19 06:24:36;;;;;;;3.30;2.05;;;;;;;7.08;100.00;103499.25;10421351;28;20033;-76
2021/12/19 06:29:37;;;;;;;1.52;1.27;;;;;;;7.07;100.00;103489.47;10421544;28;20049;-76
2021/12/19 06:34:37;;;;;;;1.67;1.58;;;;;;;7.08;100.00;103478.56;10437891;28;20499;-75
2021/12/19 06:39:38;;;;;;;1.27;1.17;;;;;;;7.14;100.00;103490.75;10421646;28;20061;-75
2021/12/19 06:44:38;;;;;;;1.98;1.83;;;;;;;7.17;100.00;103485.13;10420301;28;20099;-76
2021/12/19 06:49:39;;;;;;;3.72;2.28;;;;;;;7.20;100.00;103479.50;10421559;28;20041;-76
2021/12/19 06:54:39;;;;;;;4.55;3.28;;;;;;;7.17;100.00;103467.13;10421443;28;20072;-77
2021/12/19 06:59:40;;;;;;;2.28;2.08;;;;;;;7.19;100.00;103467.88;10419997;28;20060;-76
2021/12/19 07:04:41;;;;;;;3.97;3.53;;;;;;;7.23;100.00;103457.72;10421764;28;20038;-77
2021/12/19 07:09:41;;;;;;;3.90;3.20;;;;;;;7.22;100.00;103451.50;10419952;28;20495;-76
2021/12/19 07:14:43;;;;;;;2.13;2.03;;;;;;;7.20;100.00;103449.88;10420736;28;20065;-75
2021/12/19 07:19:44;;;;;;;1.35;1.00;;;;;;;7.12;100.00;103460.38;10420054;28;20029;-76
2021/12/19 07:24:45;;;;;;;4.57;2.45;;;;;;;7.03;100.00;103467.28;10419822;28;20034;-75
2021/12/19 07:29:47;;;;;;;2.33;2.13;;;;;;;7.00;100.00;103459.41;10419373;28;20053;-76
2021/12/19 07:34:49;;;;;;;1.70;1.60;;;;;;;7.01;100.00;103462.97;10419305;28;20061;-76
2021/12/19 07:39:58;;;;;;;2.72;1.60;;;;;;;6.99;100.00;103455.00;10418422;28;20460;-76
2021/12/19 07:44:58;;;;;;;2.60;1.63;;;;;;;6.95;100.00;103457.03;10434519;28;20381;-76
2021/12/19 07:49:58;;;;;;;3.00;2.17;;;;;;;6.97;100.00;103454.25;10418788;28;20072;-76
2021/12/19 07:55:00;;;;;;;2.72;1.75;;;;;;;6.95;100.00;103459.72;10419402;28;20506;-75
2021/12/19 08:00:00;;;;;;;1.13;1.13;;;;;;;6.98;100.00;103446.03;10437541;28;20037;-76
2021/12/19 08:05:01;;;;;;;2.28;2.17;;;;;;;7.02;100.00;103454.78;10423931;28;20030;-74
2021/12/19 08:10:14;;;;;;;1.95;1.85;;;;;;;7.06;100.00;103452.72;10416685;28;20048;-75
2021/12/19 08:15:15;;;;;;;2.58;1.90;;;;;;;7.12;100.00;103452.28;10418242;28;20124;-76
2021/12/19 08:20:17;;;;;;;2.38;2.08;;;;;;;7.16;100.00;103443.84;10418351;28;20389;-76
2021/12/19 08:25:17;;;;;;;6.75;2.75;;;;;;;7.17;100.00;103442.00;10399773;28;20095;-76
2021/12/19 08:30:20;;;;;;;2.22;2.13;;;;;;;7.16;100.00;103434.91;10416907;28;20053;-76
2021/12/19 08:35:21;;;;;;;2.08;1.77;;;;;;;7.19;100.00;103430.16;10416955;28;20029;-76
2021/12/19 08:40:23;;;;;;;4.07;2.25;;;;;;;7.33;100.00;103436.34;10417439;28;20120;-76
2021/12/19 08:45:23;;;;;;;1.50;1.40;;;;;;;7.37;100.00;103429.75;10431919;28;20523;-76
2021/12/19 08:50:24;;;;;;;2.15;1.83;;;;;;;7.40;100.00;103424.13;10416492;28;20048;-76
2021/12/19 08:55:24;;;;;;;1.33;1.15;;;;;;;7.44;100.00;103431.91;10417114;28;20033;-75
2021/12/19 09:00:25;;;;;;;3.83;1.70;;;;;;;7.41;100.00;103423.19;10415864;28;20033;-75
2021/12/19 09:05:26;;;;;;;1.13;1.10;;;;;;;7.49;100.00;103428.84;10415587;28;20057;-74
2021/12/19 09:10:26;;;;;;;2.30;2.10;;;;;;;7.52;100.00;103428.59;10415086;28;20038;-74
2021/12/19 09:15:27;;;;;;;1.95;1.85;;;;;;;7.57;100.00;103422.88;10415579;28;20064;-74
2021/12/19 09:20:27;;;;;;;2.58;2.38;;;;;;;7.64;100.00;103419.59;10414630;28;20049;-75
2021/12/19 09:25:28;;;;;;;1.40;1.30;;;;;;;7.62;100.00;103424.22;10414772;28;20874;-74
2021/12/19 09:30:28;;;;;;;0.95;0.95;;;;;;;7.59;100.00;103426.31;10415590;28;20046;-75
2021/12/19 09:35:29;;;;;;;2.47;1.48;;;;;;;7.60;100.00;103419.97;10415590;28;20045;-75
2021/12/19 09:40:34;;;;;;;1.58;1.38;;;;;;;7.75;100.00;103421.47;10415061;28;20117;-75
2021/12/19 09:45:35;;;;;;;1.17;1.17;;;;;;;7.86;100.00;103423.34;10428283;28;20465;-78
2021/12/19 09:50:35;;;;;;;1.02;0.95;;;;;;;7.88;100.00;103424.97;10426269;28;20049;-74
2021/12/19 09:55:35;;;;;;;1.05;1.05;;;;;;;7.87;100.00;103414.28;10421351;28;20045;-75
2021/12/19 10:00:36;;;;;;;1.38;1.38;;;;;;;7.90;100.00;103416.75;10422559;28;20048;-76
2021/12/19 10:05:36;;;;;;;1.40;1.30;;;;;;;7.95;100.00;103419.97;10422060;28;20044;-77
2021/12/19 10:10:44;;;;;;;4.90;1.20;;;;;;;8.04;100.00;103411.16;10422569;28;20048;-78
2021/12/19 10:15:45;;;;;;;3.67;1.40;;;;;;;8.04;100.00;103421.94;10423730;28;20117;-76
2021/12/19 10:20:53;;;;;;;0.93;0.88;;;;;;;8.15;100.00;103411.16;10426318;28;20414;-77
2021/12/19 10:26:06;;;;;;;1.08;1.08;;;;;;;8.16;100.00;103404.78;10421388;28;20065;-76
2021/12/19 10:31:06;;;;;;;0.90;0.90;;;;;;;8.08;100.00;103398.28;10421428;28;20053;-74
2021/12/19 10:36:07;;;;;;;1.25;1.25;;;;;;;8.01;100.00;103383.53;10405450;28;20041;-77
2021/12/19 10:41:07;;;;;;;1.00;1.00;;;;;;;7.99;100.00;103380.97;10461303;28;20055;-77
2021/12/19 10:46:07;;;;;;;1.33;1.23;;;;;;;7.98;100.00;103379.25;10447933;28;20112;-77
2021/12/19 10:51:12;;;;;;;1.67;1.58;;;;;;;7.98;100.00;103373.84;10462176;28;20041;-78
2021/12/19 10:56:16;;;;;;;2.63;2.35;;;;;;;7.99;100.00;103364.75;10454347;28;20416;-77
2021/12/19 11:01:26;;;;;;;3.60;2.13;;;;;;;8.03;100.00;103347.34;10419278;28;20040;-76
2021/12/19 11:06:30;;;;;;;6.13;2.95;;;;;;;8.02;100.00;103347.47;10418440;28;20038;-76
2021/12/19 11:11:39;;;;;;;3.28;3.00;;;;;;;8.03;100.00;103328.47;10417628;28;20465;-75
2021/12/19 11:16:40;;;;;;;11.07;3.42;;;;;;;8.03;100.00;103327.59;10418341;28;20044;-74
2021/12/19 11:21:42;;;;;;;4.82;2.90;;;;;;;8.02;100.00;103325.91;10423113;28;20543;-74
2021/12/19 11:26:44;;;;;;;8.90;3.30;;;;;;;8.06;100.00;103312.03;10458335;28;20052;-74
2021/12/19 11:31:46;;;;;;;7.18;3.90;;;;;;;8.12;100.00;103313.38;10438596;28;20382;-75
2021/12/19 11:36:56;;;;;;;5.35;4.03;;;;;;;8.10;100.00;103308.13;10443659;28;20045;-72
2021/12/19 11:42:06;;;;;;;4.68;3.75;;;;;;;8.02;100.00;103294.38;10402592;28;20507;-74
2021/12/19 11:47:13;;;;;;;12.77;3.97;;;;;;;7.93;100.00;103293.25;10515589;28;20067;-74
2021/12/19 11:52:30;;;;;;;5.18;3.88;;;;;;;7.99;100.00;103286.53;10483242;28;20052;-74
2021/12/19 11:57:31;;;;;;;16.88;4.90;;;;;;;8.03;100.00;103285.28;10489960;28;20059;-75
2021/12/19 12:02:31;;;;;;;11.55;3.72;;;;;;;8.03;100.00;103285.28;10498496;28;20043;-77
2021/12/19 12:08:14;;;;;;;12.40;3.85;;;;;;;7.93;100.00;103274.38;10497352;28;20082;-78
2021/12/19 12:13:27;;;;;;;9.18;4.80;;;;;;;7.98;100.00;103271.31;10454562;28;20484;-77
2021/12/19 12:18:32;;;;;;;3.85;3.17;;;;;;;7.95;100.00;103260.78;10458533;28;20029;-77
2021/12/19 12:23:33;;;;;;;4.55;3.25;;;;;;;7.87;100.00;103258.66;10457257;28;20422;-78
2021/12/19 12:28:33;;;;;;;12.02;3.80;;;;;;;7.93;100.00;103262.72;10460159;28;20064;-76
2021/12/19 12:33:36;;;;;;;6.90;3.83;;;;;;;7.90;100.00;103246.78;10513567;28;20039;-78
2021/12/19 12:38:37;;;;;;;11.27;2.42;;;;;;;7.84;100.00;103253.50;10516321;28;20498;-78
2021/12/19 12:43:40;;;;;;;9.90;3.28;;;;;;;7.80;100.00;103252.03;10497907;28;20032;-74
2021/12/19 12:48:43;;;;;;;11.20;3.10;;;;;;;7.69;100.00;103246.66;10513211;28;20039;-74
2021/12/19 12:53:47;;;;;;;10.48;2.95;;;;;;;7.57;100.00;103239.53;10498411;28;20052;-73
2021/12/19 12:58:53;;;;;;;4.00;3.10;;;;;;;7.61;100.00;103247.25;10513482;28;20028;-74
2021/12/19 13:04:00;;;;;;;8.83;2.70;;;;;;;7.57;100.00;103236.84;10498339;28;20044;-73
2021/12/19 13:09:19;;;;;;;9.70;2.35;;;;;;;7.54;100.00;103226.28;10497296;28;20024;-74
2021/12/19 13:14:25;;;;;;;1.98;1.35;;;;;;;7.55;100.00;103215.38;10492581;28;20483;-74
2021/12/19 13:19:44;;;;;;;6.63;2.35;;;;;;;7.57;100.00;103202.63;10496368;28;20507;-76
2021/12/19 13:24:45;;;;;;;6.00;3.80;;;;;;;7.58;100.00;103198.94;10498436;28;20119;-78
2021/12/19 13:30:18;;;;;;;6.05;2.35;;;;;;;7.59;100.00;103199.78;10498358;28;20056;-79
2021/12/19 13:35:26;;;;;;;7.00;2.85;;;;;;;7.60;100.00;103202.38;10497982;28;20044;-77
2021/12/19 13:40:31;;;;;;;6.68;3.40;;;;;;;7.63;100.00;103195.91;10497570;28;20041;-79
2021/12/19 13:45:45;;;;;;;8.63;2.85;;;;;;;7.64;100.00;103198.47;10462121;28;20072;-75
2021/12/19 13:50:52;;;;;;;5.03;3.08;;;;;;;7.71;100.00;103197.97;10455646;28;20029;-78
2021/12/19 13:56:28;;;;;;;12.98;2.85;;;;;;;7.66;100.00;103190.28;10455927;28;20033;-79
2021/12/19 14:01:36;;;;;;;9.48;3.63;;;;;;;7.62;100.00;103178.84;10452565;28;20048;-76
2021/12/19 14:06:37;;;;;;;9.25;3.38;;;;;;;7.59;100.00;103181.78;10460814;28;20041;-74
2021/12/19 14:11:42;;;;;;;15.02;4.35;;;;;;;7.57;100.00;103182.91;10454350;28;20029;-77
2021/12/19 14:16:46;;;;;;;21.50;3.55;;;;;;;7.62;100.00;103178.84;10454123;28;20116;-76
2021/12/19 14:21:48;;;;;;;17.73;3.72;;;;;;;7.62;100.00;103176.13;10453627;28;20076;-76
2021/12/19 14:27:14;;;;;;;5.53;3.08;;;;;;;7.64;100.00;103174.19;10452294;28;20059;-71
2021/12/19 14:32:20;;;;;;;7.57;3.33;;;;;;;7.63;100.00;103164.41;10502588;28;20160;-74
2021/12/19 14:37:25;;;;;;;9.30;2.40;;;;;;;7.58;100.00;103154.94;10502378;28;20028;-74
2021/12/19 14:42:33;;;;;;;7.85;3.08;;;;;;;7.56;100.00;103154.22;10493690;28;20082;-74
2021/12/19 14:47:37;;;;;;;3.08;2.42;;;;;;;7.54;100.00;103161.59;10465047;28;20021;-77
2021/12/19 14:52:38;;;;;;;5.88;2.75;;;;;;;7.41;100.00;103154.47;10481599;28;20457;-75
2021/12/19 14:57:38;;;;;;;9.18;3.60;;;;;;;7.35;100.00;103162.19;10463339;28;20102;-76
2021/12/19 15:02:38;;;;;;;5.10;1.70;;;;;;;7.36;100.00;103153.94;10463041;28;20045;-78
2021/12/19 15:07:43;;;;;;;1.63;1.33;;;;;;;7.43;100.00;103151.63;10461100;28;20033;-74
2021/12/19 15:12:44;;;;;;;2.65;2.10;;;;;;;7.42;100.00;103147.22;10459122;28;20036;-75
2021/12/19 15:17:44;;;;;;;3.50;2.30;;;;;;;7.44;100.00;103154.22;10475778;28;20037;-75
2021/12/19 15:22:45;;;;;;;9.55;2.15;;;;;;;7.45;100.00;103144.28;10459634;28;20473;-74
2021/12/19 15:27:45;;;;;;;8.70;2.90;;;;;;;7.44;100.00;103147.97;10459692;28;20378;-76
2021/12/19 15:32:45;;;;;;;2.78;2.35;;;;;;;7.44;100.00;103131.81;10465767;28;20081;-76
2021/12/19 15:37:46;;;;;;;3.63;1.95;;;;;;;7.44;100.00;103138.03;10478709;28;20071;-76
2021/12/19 15:42:46;;;;;;;7.78;2.97;;;;;;;7.44;100.00;103127.25;10501083;28;20033;-76
2021/12/19 15:47:47;;;;;;;3.08;2.75;;;;;;;7.45;100.00;103120.03;10500937;28;20082;-77
2021/12/19 15:52:47;;;;;;;8.30;3.05;;;;;;;7.43;100.00;103113.88;10501754;28;20531;-77
2021/12/19 15:57:48;;;;;;;4.47;2.78;;;;;;;7.42;100.00;103112.19;10501455;28;20032;-77
2021/12/19 16:02:48;;;;;;;6.28;2.90;;;;;;;7.43;100.00;103103.09;10500798;28;20041;-77
2021/12/19 16:07:49;;;;;;;5.90;3.08;;;;;;;7.45;100.00;103093.06;10500191;28;20052;-76
2021/12/19 16:12:49;;;;;;;5.93;2.90;;;;;;;7.44;100.00;103096.75;10499239;28;20021;-77
2021/12/19 16:17:52;;;;;;;5.38;2.90;;;;;;;7.40;100.00;103097.97;10500291;28;20527;-77
2021/12/19 16:22:52;;;;;;;9.70;3.78;;;;;;;7.34;100.00;103090.34;10516152;28;20054;-77
2021/12/19 16:27:53;;;;;;;11.68;4.90;;;;;;;7.38;100.00;103092.72;10501281;28;20126;-77
2021/12/19 16:32:54;;;;;;;8.85;2.75;;;;;;;7.39;100.00;103097.09;10499964;28;20083;-76
2021/12/19 16:37:56;;;;;;;6.68;4.22;;;;;;;7.39;100.00;103086.31;10498937;28;20067;-76
2021/12/19 16:48:16;;;;;;;13.50;4.90;;;;;;;7.38;100.00;103071.16;10498854;28;20060;-75
2021/12/19 16:53:16;;;;;;;5.38;3.50;;;;;;;7.40;100.00;103065.63;10481134;28;20469;-77
2021/12/19 16:58:16;;;;;;;10.65;3.60;;;;;;;7.42;100.00;103069.06;10498991;28;20111;-77
2021/12/19 17:03:18;;;;;;;14.50;5.68;;;;;;;7.47;100.00;103072.25;10498398;28;20040;-77
2021/12/19 17:08:18;;;;;;;12.88;4.63;;;;;;;7.48;100.00;103073.09;10501573;28;20083;-76
2021/12/19 17:13:29;;;;;;;12.27;4.53;;;;;;;7.47;100.00;103072.25;10499694;28;20036;-77
2021/12/19 17:18:30;;;;;;;10.70;5.18;;;;;;;7.43;100.00;103070.75;10498083;28;20037;-77
2021/12/19 17:23:31;;;;;;;9.70;5.03;;;;;;;7.44;100.00;103062.56;10497909;28;20401;-77
2021/12/19 17:28:31;;;;;;;22.77;4.03;;;;;;;7.46;100.00;103065.97;10498722;28;20084;-77
2021/12/19 17:33:31;;;;;;;17.73;4.18;;;;;;;7.48;100.00;103062.31;10497732;28;20063;-77
2021/12/19 17:38:33;;;;;;;17.90;3.90;;;;;;;7.46;100.00;103070.50;10498143;28;20119;-77
2021/12/19 17:43:33;;;;;;;19.10;4.55;;;;;;;7.49;100.00;103058.63;10497042;28;20039;-77
2021/12/19 17:48:34;;;;;;;19.38;3.83;;;;;;;7.49;100.00;103054.09;10497115;28;20032;-77
2021/12/19 17:53:34;;;;;;;13.40;4.57;;;;;;;7.51;100.00;103062.91;10496598;28;20032;-77
2021/12/19 17:58:35;;;;;;;6.22;2.72;;;;;;;7.53;100.00;103060.09;10497277;28;20039;-77
2021/12/19 18:03:37;;;;;;;10.70;4.40;;;;;;;7.50;100.00;103054.94;10500462;28;20108;-77
2021/12/19 18:08:37;;;;;;;9.80;4.10;;;;;;;7.52;100.00;103053.84;10521468;28;20093;-76
2021/12/19 18:13:38;;;;;;;15.20;4.93;;;;;;;7.52;100.00;103044.91;10505790;28;20036;-77
2021/12/19 18:18:38;;;;;;;19.90;3.88;;;;;;;7.52;100.00;103039.50;10505996;28;20127;-77
2021/12/19 18:23:39;;;;;;;10.80;3.25;;;;;;;7.57;100.00;103040.84;10504386;28;20037;-77
2021/12/19 18:28:40;;;;;;;10.38;3.97;;;;;;;7.60;100.00;103037.06;10504822;28;20384;-77
2021/12/19 18:33:41;;;;;;;11.50;5.07;;;;;;;7.65;100.00;103038.38;10504793;28;20067;-75
2021/12/19 18:38:42;;;;;;;8.93;4.68;;;;;;;7.69;100.00;103031.75;10504850;28;20083;-77
2021/12/19 18:43:50;;;;;;;26.08;5.85;;;;;;;7.71;100.00;103026.22;10485580;28;20032;-77
2021/12/19 18:49:26;;;;;;;16.17;4.60;;;;;;;7.69;100.00;103023.69;10502319;28;20036;-76
2021/12/19 18:54:20;;;;;;;24.95;5.60;;;;;;;7.71;100.00;103019.97;10503046;28;20048;-77
2021/12/19 18:59:23;;;;;;;16.33;5.10;;;;;;;7.76;100.00;103015.09;10486525;28;20044;-77
2021/12/19 19:04:26;;;;;;;7.97;3.55;;;;;;;7.76;100.00;103013.22;10502245;28;20035;-76
2021/12/19 19:09:28;;;;;;;15.52;4.78;;;;;;;7.76;100.00;103009.69;10501798;28;20057;-77
2021/12/19 19:14:28;;;;;;;10.35;3.05;;;;;;;7.78;100.00;103013.94;10502951;28;20472;-77
2021/12/19 19:19:29;;;;;;;15.55;3.60;;;;;;;7.81;100.00;103021.78;10503654;28;20045;-77
2021/12/19 19:24:29;;;;;;;8.60;2.40;;;;;;;7.82;100.00;103009.19;10504167;28;20395;-77
2021/12/19 19:29:29;;;;;;;16.48;4.07;;;;;;;7.82;100.00;103010.03;10502340;28;20139;-77
2021/12/19 19:34:30;;;;;;;10.55;3.75;;;;;;;7.82;100.00;103022.66;10503155;28;20396;-77
2021/12/19 19:49:46;;;;;;;11.38;3.58;;;;;;;7.79;100.00;103012.13;10502839;28;20068;-77
2021/12/19 19:54:46;;;;;;;7.47;4.82;;;;;;;7.79;100.00;103007.59;10502730;28;20036;-77
2021/12/19 19:59:47;;;;;;;12.98;4.07;;;;;;;7.79;100.00;103006.72;10501483;28;20507;-77
2021/12/19 20:04:47;;;;;;;9.07;3.47;;;;;;;7.81;100.00;103010.13;10502369;28;20068;-77
2021/12/19 20:09:48;;;;;;;6.43;2.58;;;;;;;7.63;100.00;103017.94;10500159;28;20063;-77
2021/12/19 20:14:49;;;;;;;10.50;2.92;;;;;;;7.43;100.00;103023.13;10500263;28;20035;-76
2021/12/19 20:19:49;;;;;;;2.25;1.88;;;;;;;7.19;100.00;103017.00;10500860;28;20079;-76
2021/12/19 20:24:52;;;;;;;5.05;2.40;;;;;;;7.07;100.00;103010.75;10498780;28;20100;-76
2021/12/19 20:29:52;;;;;;;16.05;3.90;;;;;;;7.01;100.00;103024.72;10482609;28;20098;-76
2021/12/19 20:34:53;;;;;;;2.90;2.17;;;;;;;6.98;100.00;103022.25;10500132;28;20098;-75
2021/12/19 20:39:53;;;;;;;5.80;2.45;;;;;;;6.90;100.00;103016.66;10500095;28;20051;-76
2021/12/19 20:44:54;;;;;;;5.85;4.63;;;;;;;6.66;100.00;103022.97;10498300;28;20052;-77
2021/12/19 20:49:54;;;;;;;7.57;4.20;;;;;;;6.73;100.00;103024.22;10499637;28;20036;-76
2021/12/19 20:54:54;;;;;;;5.35;1.95;;;;;;;6.84;100.00;103011.75;10500175;28;20055;-76
2021/12/19 20:59:55;;;;;;;2.88;1.90;;;;;;;6.92;100.00;103007.47;10499567;28;20067;-77
2021/12/19 21:04:55;;;;;;;5.70;1.88;;;;;;;6.92;100.00;103011.97;10500076;28;20033;-75
2021/12/19 21:09:56;;;;;;;4.13;1.80;;;;;;;6.78;100.00;103018.47;10498855;28;20040;-76
2021/12/19 21:19:21;;;;;;;7.85;2.58;;;;;;;6.79;100.00;103027.38;10498358;28;20476;-75
2021/12/19 21:20:19;;;;;;;3.40;1.58;;;;;;;6.82;100.00;103028.00;10492384;28;20113;-75
2021/12/19 21:25:20;;;;;;;2.30;1.95;;;;;;;6.85;100.00;103018.84;10498920;28;20082;-77
2021/12/19 21:30:22;;;;;;;6.70;1.65;;;;;;;6.59;100.00;103012.81;10498166;28;20056;-77
2021/12/19 21:40:23;;;;;;;4.65;1.63;;;;;;;6.58;100.00;103036.19;10508259;28;20037;-75
2021/12/19 21:45:23;;;;;;;1.60;1.50;;;;;;;6.68;100.00;103010.25;10504420;28;20058;-75
2021/12/19 21:50:24;;;;;;;3.13;1.77;;;;;;;6.68;100.00;103018.31;10497154;28;20036;-74
2021/12/19 21:55:25;;;;;;;1.08;0.98;;;;;;;6.66;100.00;103028.34;10497408;28;20040;-74
2021/12/19 22:00:29;;;;;;;3.28;1.45;;;;;;;6.63;100.00;103006.19;10496280;28;20037;-74
2021/12/19 22:05:29;;;;;;;4.38;2.00;;;;;;;6.60;100.00;103001.91;10496185;28;20029;-73
2021/12/19 22:10:30;;;;;;;3.28;1.40;;;;;;;6.45;100.00;103021.97;10496741;28;20399;-73
2021/12/19 22:15:37;;;;;;;5.90;1.90;;;;;;;6.33;100.00;102988.78;10497423;28;20072;-74
2021/12/19 22:20:38;;;;;;;2.05;1.38;;;;;;;6.29;100.00;102998.06;10496134;28;20037;-74
2021/12/19 22:25:39;;;;;;;6.25;2.10;;;;;;;6.40;100.00;103008.84;10495785;28;20032;-74
2021/12/19 22:30:39;;;;;;;2.03;1.90;;;;;;;6.29;100.00;102988.16;10497235;28;20392;-74
2021/12/19 22:35:40;;;;;;;6.43;1.40;;;;;;;6.09;100.00;102985.25;10495728;28;20025;-74
2021/12/19 22:40:40;;;;;;;6.82;1.75;;;;;;;6.16;100.00;102978.44;10496168;28;20390;-74
2021/12/19 22:45:41;;;;;;;2.35;1.50;;;;;;;6.33;100.00;102978.00;10496761;28;20033;-74
2021/12/19 22:50:41;;;;;;;2.25;2.05;;;;;;;6.43;100.00;102987.06;10515415;28;20502;-75
2021/12/19 22:55:42;;;;;;;6.65;2.20;;;;;;;6.54;100.00;102967.41;10503253;28;20476;-74
2021/12/19 23:00:42;;;;;;;7.85;1.48;;;;;;;6.64;100.00;102976.47;10502177;28;20045;-73
2021/12/19 23:05:42;;;;;;;4.03;2.40;;;;;;;6.68;100.00;102977.94;10501827;28;20082;-73
2021/12/19 23:10:46;;;;;;;2.70;1.88;;;;;;;6.70;100.00;102989.47;10501089;28;20040;-74
2021/12/19 23:15:48;;;;;;;4.40;2.28;;;;;;;6.71;100.00;102966.94;10502406;28;20150;-75
2021/12/19 23:20:49;;;;;;;8.57;2.47;;;;;;;6.72;100.00;102971.31;10502320;28;20475;-75
2021/12/19 23:25:49;;;;;;;3.65;1.95;;;;;;;6.70;100.00;102954.47;10502916;28;20068;-73
2021/12/19 23:30:50;;;;;;;4.85;2.38;;;;;;;6.72;100.00;102962.41;10500914;28;20499;-74
2021/12/19 23:36:13;;;;;;;3.58;2.40;;;;;;;6.73;100.00;102958.72;10501909;28;20365;-75
2021/12/19 23:46:22;;;;;;;5.53;2.57;;;;;;;6.78;100.00;102961.06;10501913;28;20498;-75
2021/12/19 23:51:23;;;;;;;5.15;1.63;;;;;;;6.79;100.00;102958.22;10500329;28;20031;-75
2021/12/19 23:56:23;;;;;;;10.68;2.28;;;;;;;6.80;100.00;102964.50;10502280;28;20036;-75
